createdAt,value
2023-01-07T00:00:45.267Z,4.79
2023-01-07T00:03:19.337Z,4.78
2023-01-07T00:05:50.157Z,4.79
2023-01-07T00:08:20.921Z,4.81
2023-01-07T00:10:51.839Z,4.81
2023-01-07T00:13:22.546Z,4.83
2023-01-07T00:15:53.301Z,4.83
2023-01-07T00:18:24.097Z,4.82
2023-01-07T00:20:57.258Z,4.77
2023-01-07T00:23:28.339Z,4.76
2023-01-07T00:26:02.555Z,4.75
2023-01-07T00:28:34.327Z,4.68
2023-01-07T00:31:05.981Z,4.59
2023-01-07T00:33:37.983Z,4.50
2023-01-07T00:36:09.677Z,4.45
2023-01-07T00:38:40.624Z,4.40
2023-01-07T00:41:11.720Z,4.38
2023-01-07T00:43:42.436Z,4.34
2023-01-07T00:46:13.080Z,4.26
2023-01-07T00:48:45.023Z,4.22
2023-01-07T00:51:16.647Z,4.22
2023-01-07T00:53:47.338Z,4.22
2023-01-07T00:56:19.238Z,4.21
2023-01-07T00:58:49.987Z,4.21
2023-01-07T01:01:20.774Z,4.22
2023-01-07T01:03:51.551Z,4.19
2023-01-07T01:06:22.310Z,4.20
2023-01-07T01:08:53.071Z,4.21
2023-01-07T01:11:23.786Z,4.25
2023-01-07T01:13:54.721Z,4.26
2023-01-07T01:16:25.458Z,4.24
2023-01-07T01:18:56.280Z,4.27
2023-01-07T01:21:27.173Z,4.23
2023-01-07T01:23:57.905Z,4.21
2023-01-07T01:26:28.584Z,4.17
2023-01-07T01:28:59.313Z,4.13
2023-01-07T01:31:29.984Z,4.12
2023-01-07T01:34:01.201Z,4.11
2023-01-07T01:36:32.059Z,4.13
2023-01-07T01:39:02.803Z,4.12
2023-01-07T01:41:33.611Z,4.10
2023-01-07T01:44:04.380Z,4.07
2023-01-07T01:46:36.359Z,4.04
2023-01-07T01:49:07.599Z,4.04
2023-01-07T01:51:38.464Z,4.02
2023-01-07T01:54:09.902Z,3.97
2023-01-07T01:56:41.031Z,3.94
2023-01-07T01:59:12.056Z,3.90
2023-01-07T02:01:42.891Z,3.87
2023-01-07T02:04:14.515Z,3.85
2023-01-07T02:06:46.506Z,3.79
2023-01-07T02:09:17.289Z,3.76
2023-01-07T02:11:48.440Z,3.76
2023-01-07T02:14:24.280Z,3.75
2023-01-07T02:16:56.766Z,3.71
2023-01-07T02:19:34.548Z,3.71
2023-01-07T02:22:07.843Z,3.71
2023-01-07T02:24:54.971Z,3.73
2023-01-07T02:27:31.732Z,3.75
2023-01-07T02:30:17.417Z,3.78
2023-01-07T02:33:13.659Z,3.79
2023-01-07T02:36:03.640Z,3.78
2023-01-07T02:38:35.699Z,3.79
2023-01-07T02:41:10.007Z,3.78
2023-01-07T02:43:41.767Z,3.78
2023-01-07T02:46:14.388Z,3.78
2023-01-07T02:48:45.051Z,3.77
2023-01-07T02:51:15.881Z,3.70
2023-01-07T02:53:46.804Z,3.67
2023-01-07T02:56:21.299Z,3.66
2023-01-07T02:58:58.128Z,3.67
2023-01-07T03:01:34.167Z,3.68
2023-01-07T03:04:22.573Z,3.70
2023-01-07T03:06:56.636Z,3.69
2023-01-07T03:09:30.540Z,3.66
2023-01-07T03:12:02.080Z,3.63
2023-01-07T03:14:34.309Z,3.58
2023-01-07T03:17:06.352Z,3.52
2023-01-07T03:19:37.832Z,3.51
2023-01-07T03:22:09.133Z,3.54
2023-01-07T03:24:39.825Z,3.59
2023-01-07T03:27:10.593Z,3.64
2023-01-07T03:29:41.909Z,3.67
2023-01-07T03:32:13.086Z,3.71
2023-01-07T03:34:43.815Z,3.74
2023-01-07T03:37:15.612Z,3.80
2023-01-07T03:39:46.441Z,3.84
2023-01-07T03:42:34.694Z,3.87
2023-01-07T03:45:05.917Z,3.87
2023-01-07T03:47:36.588Z,3.89
2023-01-07T03:50:07.834Z,3.91
2023-01-07T03:52:38.642Z,3.95
2023-01-07T03:55:10.241Z,3.94
2023-01-07T03:57:40.975Z,3.89
2023-01-07T04:00:13.959Z,3.85
2023-01-07T04:02:44.636Z,3.85
2023-01-07T04:05:15.406Z,3.85
2023-01-07T04:07:46.035Z,3.83
2023-01-07T04:10:16.893Z,3.81
2023-01-07T04:12:47.502Z,3.81
2023-01-07T04:15:18.288Z,3.79
2023-01-07T04:17:49.012Z,3.77
2023-01-07T04:20:19.704Z,3.74
2023-01-07T04:22:50.402Z,3.74
2023-01-07T04:25:21.027Z,3.75
2023-01-07T04:27:51.730Z,3.78
2023-01-07T04:30:22.408Z,3.81
2023-01-07T04:32:53.158Z,3.83
2023-01-07T04:35:23.817Z,3.83
2023-01-07T04:37:54.498Z,3.85
2023-01-07T04:40:25.326Z,3.88
2023-01-07T04:42:55.949Z,3.93
2023-01-07T04:45:26.593Z,3.97
2023-01-07T04:48:00.311Z,3.99
2023-01-07T04:50:30.985Z,4.03
2023-01-07T04:53:01.759Z,4.04
2023-01-07T04:55:32.454Z,4.06
2023-01-07T04:58:03.121Z,4.08
2023-01-07T05:00:33.917Z,4.08
2023-01-07T05:03:04.614Z,4.07
2023-01-07T05:05:35.398Z,4.05
2023-01-07T05:08:06.544Z,4.03
2023-01-07T05:10:37.308Z,4.02
2023-01-07T05:13:07.959Z,3.95
2023-01-07T05:15:38.648Z,3.83
2023-01-07T05:18:09.366Z,3.78
2023-01-07T05:20:40.024Z,3.78
2023-01-07T05:23:10.658Z,3.77
2023-01-07T05:25:41.387Z,3.76
2023-01-07T05:28:12.254Z,3.74
2023-01-07T05:30:43.037Z,3.72
2023-01-07T05:33:13.664Z,3.72
2023-01-07T05:35:44.255Z,3.78
2023-01-07T05:38:14.963Z,3.87
2023-01-07T05:40:49.914Z,3.95
2023-01-07T05:43:21.618Z,3.95
2023-01-07T05:45:52.277Z,3.88
2023-01-07T05:48:23.431Z,3.87
2023-01-07T05:50:54.142Z,3.87
2023-01-07T05:53:24.925Z,3.87
2023-01-07T05:55:58.676Z,3.89
2023-01-07T05:58:29.490Z,3.85
2023-01-07T06:01:00.396Z,3.82
2023-01-07T06:03:31.400Z,3.77
2023-01-07T06:06:07.494Z,3.71
2023-01-07T06:08:38.746Z,3.65
2023-01-07T06:11:10.393Z,3.53
2023-01-07T06:13:41.182Z,3.41
2023-01-07T06:16:12.218Z,3.30
2023-01-07T06:18:43.233Z,3.17
2023-01-07T06:21:16.253Z,3.07
2023-01-07T06:23:47.010Z,2.93
2023-01-07T06:26:17.842Z,2.80
2023-01-07T06:28:48.784Z,2.68
2023-01-07T06:31:19.426Z,2.63
2023-01-07T06:33:50.225Z,2.67
2023-01-07T06:36:20.896Z,2.75
2023-01-07T06:38:51.781Z,2.83
2023-01-07T06:41:22.585Z,2.84
2023-01-07T06:43:53.302Z,2.82
2023-01-07T06:46:24.444Z,2.85
2023-01-07T06:48:55.302Z,2.86
2023-01-07T06:51:26.044Z,2.80
2023-01-07T06:53:58.676Z,2.79
2023-01-07T06:56:30.504Z,2.79
2023-01-07T06:59:01.292Z,2.77
2023-01-07T07:01:32.688Z,2.76
2023-01-07T07:04:03.489Z,2.79
2023-01-07T07:06:34.292Z,2.83
2023-01-07T07:09:05.057Z,2.87
2023-01-07T07:11:35.764Z,2.91
2023-01-07T07:14:06.508Z,2.92
2023-01-07T07:16:37.235Z,2.92
2023-01-07T07:19:07.970Z,2.94
2023-01-07T07:21:38.627Z,2.98
2023-01-07T07:24:09.434Z,3.04
2023-01-07T07:26:40.167Z,3.10
2023-01-07T07:29:11.555Z,3.17
2023-01-07T07:31:42.337Z,3.23
2023-01-07T07:34:13.186Z,3.30
2023-01-07T07:36:43.944Z,3.36
2023-01-07T07:39:14.864Z,3.43
2023-01-07T07:41:45.713Z,3.53
2023-01-07T07:44:16.633Z,3.62
2023-01-07T07:46:47.385Z,3.71
2023-01-07T07:49:18.146Z,3.80
2023-01-07T07:51:48.783Z,3.88
2023-01-07T07:54:20.118Z,3.96
2023-01-07T07:56:51.665Z,4.03
2023-01-07T07:59:22.289Z,4.10
2023-01-07T08:01:53.009Z,4.19
2023-01-07T08:04:24.274Z,4.28
2023-01-07T08:06:55.513Z,4.36
2023-01-07T08:09:26.182Z,4.40
2023-01-07T08:11:57.279Z,4.48
2023-01-07T08:14:27.991Z,4.58
2023-01-07T08:16:59.391Z,4.71
2023-01-07T08:19:30.288Z,4.81
2023-01-07T08:22:00.969Z,4.93
2023-01-07T08:24:31.753Z,5.02
2023-01-07T08:27:02.817Z,5.11
2023-01-07T08:29:33.548Z,5.18
2023-01-07T08:32:04.493Z,5.26
2023-01-07T08:34:35.463Z,5.32
2023-01-07T08:37:06.437Z,5.41
2023-01-07T08:39:37.622Z,5.48
2023-01-07T08:42:08.707Z,5.53
2023-01-07T08:44:39.689Z,5.59
2023-01-07T08:47:10.539Z,5.66
2023-01-07T08:49:41.173Z,5.73
2023-01-07T08:52:11.978Z,5.78
2023-01-07T08:54:42.910Z,5.83
2023-01-07T08:57:13.625Z,5.91
2023-01-07T08:59:44.345Z,5.99
2023-01-07T09:02:17.147Z,6.06
2023-01-07T09:04:47.907Z,6.14
2023-01-07T09:07:18.633Z,6.22
2023-01-07T09:09:49.381Z,6.27
2023-01-07T09:12:20.141Z,6.34
2023-01-07T09:14:51.036Z,6.42
2023-01-07T09:17:24.100Z,6.49
2023-01-07T09:19:55.091Z,6.54
2023-01-07T09:22:25.778Z,6.59
2023-01-07T09:24:57.265Z,6.64
2023-01-07T09:27:28.044Z,6.68
2023-01-07T09:29:58.761Z,6.70
2023-01-07T09:32:29.817Z,6.75
2023-01-07T09:35:00.668Z,6.83
2023-01-07T09:37:31.368Z,6.91
2023-01-07T09:40:02.391Z,6.98
2023-01-07T09:42:35.256Z,7.08
2023-01-07T09:45:12.338Z,7.18
2023-01-07T09:47:44.169Z,7.24
2023-01-07T09:50:19.279Z,7.28
2023-01-07T09:52:50.716Z,7.34
2023-01-07T09:55:22.725Z,7.45
2023-01-07T09:57:53.411Z,7.51
2023-01-07T10:00:24.908Z,7.56
2023-01-07T10:03:00.502Z,7.65
2023-01-07T10:05:33.282Z,7.75
2023-01-07T10:08:29.754Z,7.93
2023-01-07T10:10:57.474Z,8.22
2023-01-07T10:13:44.707Z,8.53
2023-01-07T10:16:17.202Z,8.81
2023-01-07T10:18:51.131Z,9.09
2023-01-07T10:21:23.217Z,9.39
2023-01-07T10:23:55.149Z,9.76
2023-01-07T10:26:30.371Z,10.27
2023-01-07T10:29:02.814Z,10.70
2023-01-07T10:31:33.608Z,11.12
2023-01-07T10:34:04.396Z,11.46
2023-01-07T10:36:35.844Z,11.69
2023-01-07T10:39:13.648Z,11.79
2023-01-07T10:41:46.555Z,11.67
2023-01-07T10:44:28.030Z,11.51
2023-01-07T10:47:00.877Z,11.44
2023-01-07T10:49:35.112Z,11.33
2023-01-07T10:52:14.267Z,11.29
2023-01-07T10:54:49.071Z,11.21
2023-01-07T10:57:20.729Z,11.14
2023-01-07T10:59:51.938Z,11.13
2023-01-07T11:02:27.797Z,11.09
2023-01-07T11:05:00.140Z,11.06
2023-01-07T11:07:33.717Z,11.02
2023-01-07T11:10:05.553Z,11.04
2023-01-07T11:12:37.894Z,11.03
2023-01-07T11:15:10.470Z,11.09
2023-01-07T11:17:42.092Z,11.18
2023-01-07T11:20:12.942Z,11.26
2023-01-07T11:22:44.571Z,11.33
2023-01-07T11:25:31.601Z,11.33
2023-01-07T11:28:03.532Z,11.34
2023-01-07T11:30:36.048Z,11.38
2023-01-07T11:33:07.405Z,11.42
2023-01-07T11:35:41.059Z,11.46
2023-01-07T11:38:26.506Z,11.53
2023-01-07T11:40:59.929Z,11.52
2023-01-07T11:43:34.092Z,11.58
2023-01-07T11:46:20.225Z,11.83
2023-01-07T11:48:54.080Z,12.07
2023-01-07T11:51:24.958Z,12.33
2023-01-07T11:53:56.962Z,12.48
2023-01-07T11:56:29.141Z,12.64
2023-01-07T11:59:16.982Z,12.74
2023-01-07T12:01:48.539Z,12.91
2023-01-07T12:04:22.668Z,13.25
2023-01-07T12:06:54.165Z,13.57
2023-01-07T12:09:26.913Z,13.79
2023-01-07T12:11:58.232Z,13.87
2023-01-07T12:14:30.037Z,13.86
2023-01-07T12:17:09.516Z,13.90
2023-01-07T12:19:51.223Z,13.83
2023-01-07T12:22:25.106Z,13.52
2023-01-07T12:25:03.155Z,13.21
2023-01-07T12:27:35.817Z,12.91
2023-01-07T12:30:13.541Z,12.64
2023-01-07T12:32:48.271Z,12.37
2023-01-07T12:35:20.678Z,12.17
2023-01-07T12:37:53.303Z,12.00
2023-01-07T12:40:32.866Z,11.94
2023-01-07T12:43:17.078Z,11.77
2023-01-07T12:45:49.093Z,11.72
2023-01-07T12:48:23.675Z,11.72
2023-01-07T12:50:55.619Z,11.71
2023-01-07T12:53:29.820Z,11.75
2023-01-07T12:56:01.709Z,11.79
2023-01-07T12:58:38.361Z,11.83
2023-01-07T13:01:12.849Z,11.78
2023-01-07T13:03:46.600Z,11.64
2023-01-07T13:06:17.846Z,11.55
2023-01-07T13:08:51.137Z,11.55
2023-01-07T13:11:43.443Z,11.57
2023-01-07T13:14:17.137Z,11.46
2023-01-07T13:16:47.965Z,11.23
2023-01-07T13:19:18.764Z,11.07
2023-01-07T13:21:49.415Z,10.99
2023-01-07T13:24:55.550Z,10.93
2023-01-07T13:27:21.483Z,10.82
2023-01-07T13:29:58.753Z,10.75
2023-01-07T13:32:46.832Z,10.77
2023-01-07T13:35:31.103Z,10.85
2023-01-07T13:38:06.327Z,10.94
2023-01-07T13:40:45.623Z,11.02
2023-01-07T13:43:20.299Z,11.10
2023-01-07T13:45:54.543Z,11.16
2023-01-07T13:48:25.662Z,11.18
2023-01-07T13:51:00.100Z,11.19
2023-01-07T13:53:35.141Z,11.17
2023-01-07T13:56:19.247Z,11.16
2023-01-07T13:58:51.789Z,11.14
2023-01-07T14:01:22.890Z,11.10
2023-01-07T14:03:54.209Z,11.06
2023-01-07T14:06:44.323Z,11.03
2023-01-07T14:09:16.386Z,10.94
2023-01-07T14:11:51.837Z,10.91
2023-01-07T14:14:24.665Z,10.90
2023-01-07T14:16:56.866Z,10.86
2023-01-07T14:19:28.612Z,10.82
2023-01-07T14:22:00.931Z,10.80
2023-01-07T14:24:54.200Z,10.76
2023-01-07T14:27:29.683Z,10.72
2023-01-07T14:30:15.472Z,10.68
2023-01-07T14:32:47.196Z,10.57
2023-01-07T14:35:23.812Z,10.50
2023-01-07T14:37:54.699Z,10.45
2023-01-07T14:40:40.363Z,10.35
2023-01-07T14:43:24.591Z,10.27
2023-01-07T14:45:55.906Z,10.27
2023-01-07T14:48:31.359Z,10.24
2023-01-07T14:51:19.609Z,10.20
2023-01-07T14:53:58.615Z,10.22
2023-01-07T14:56:33.555Z,10.21
2023-01-07T14:59:13.237Z,10.20
2023-01-07T15:01:57.510Z,10.22
2023-01-07T15:04:32.769Z,10.24
2023-01-07T15:07:03.633Z,10.26
2023-01-07T15:09:54.178Z,10.25
2023-01-07T15:12:50.109Z,10.26
2023-01-07T15:15:40.673Z,10.26
2023-01-07T15:18:11.910Z,10.25
2023-01-07T15:20:47.117Z,10.23
2023-01-07T15:23:20.909Z,10.21
2023-01-07T15:25:55.374Z,10.19
2023-01-07T15:28:29.692Z,10.16
2023-01-07T15:31:01.638Z,10.15
2023-01-07T15:33:36.898Z,10.13
2023-01-07T15:36:09.415Z,10.09
2023-01-07T15:38:42.563Z,10.04
2023-01-07T15:41:23.901Z,10.01
2023-01-07T15:43:54.739Z,9.96
2023-01-07T15:46:26.449Z,9.92
2023-01-07T15:49:15.506Z,9.88
2023-01-07T15:51:49.270Z,9.86
2023-01-07T15:54:34.474Z,9.84
2023-01-07T15:57:06.498Z,9.83
2023-01-07T15:59:37.948Z,9.82
2023-01-07T16:02:14.988Z,9.79
2023-01-07T16:04:48.636Z,9.76
2023-01-07T16:07:22.194Z,9.73
2023-01-07T16:09:53.015Z,9.69
2023-01-07T16:12:28.180Z,9.62
2023-01-07T16:14:59.032Z,9.51
2023-01-07T16:17:29.927Z,9.40
2023-01-07T16:20:16.608Z,9.30
2023-01-07T16:22:47.502Z,9.20
2023-01-07T16:25:22.388Z,9.15
2023-01-07T16:27:53.337Z,9.10
2023-01-07T16:30:24.426Z,9.07
2023-01-07T16:32:56.234Z,9.05
2023-01-07T16:35:27.943Z,9.02
2023-01-07T16:37:58.934Z,8.98
2023-01-07T16:40:31.543Z,8.92
2023-01-07T16:43:02.663Z,8.88
2023-01-07T16:45:33.907Z,8.86
2023-01-07T16:48:19.268Z,8.83
2023-01-07T16:50:51.334Z,8.81
2023-01-07T16:53:26.506Z,8.79
2023-01-07T16:56:12.843Z,8.76
2023-01-07T16:58:45.209Z,8.74
2023-01-07T17:01:19.747Z,8.73
2023-01-07T17:10:29.954Z,8.71
2023-01-07T17:13:01.441Z,8.69
2023-01-07T17:15:36.569Z,8.69
2023-01-07T17:18:29.105Z,8.68
2023-01-07T17:21:01.098Z,8.67
2023-01-07T17:23:38.607Z,8.65
2023-01-07T17:26:13.952Z,8.64
2023-01-07T17:28:46.356Z,8.63
2023-01-07T17:31:17.538Z,8.62
2023-01-07T17:33:48.383Z,8.59
2023-01-07T17:36:20.339Z,8.56
2023-01-07T17:38:51.131Z,8.53
2023-01-07T17:41:40.047Z,8.52
2023-01-07T17:44:13.126Z,8.52
2023-01-07T17:46:43.987Z,8.54
2023-01-07T17:49:14.876Z,8.54
2023-01-07T17:51:46.022Z,8.53
2023-01-07T17:54:19.858Z,8.51
2023-01-07T17:56:50.897Z,8.49
2023-01-07T17:59:22.474Z,8.49
2023-01-07T18:01:57.062Z,8.50
2023-01-07T18:04:31.461Z,8.48
2023-01-07T18:07:03.519Z,8.47
2023-01-07T18:09:34.659Z,8.46
2023-01-07T18:12:23.243Z,8.48
2023-01-07T18:14:55.344Z,8.48
2023-01-07T18:17:26.332Z,8.48
2023-01-07T18:19:57.426Z,8.47
2023-01-07T18:22:28.387Z,8.47
2023-01-07T18:24:59.233Z,8.45
2023-01-07T18:27:46.861Z,8.45
2023-01-07T18:30:18.733Z,8.45
2023-01-07T18:32:51.485Z,8.45
2023-01-07T18:35:22.893Z,8.44
2023-01-07T18:37:54.083Z,8.44
2023-01-07T18:40:24.922Z,8.45
2023-01-07T18:42:55.766Z,8.44
2023-01-07T18:45:26.640Z,8.40
2023-01-07T18:47:57.562Z,8.37
2023-01-07T18:50:28.429Z,8.34
2023-01-07T18:52:59.387Z,8.33
2023-01-07T18:55:31.248Z,8.31
2023-01-07T18:58:13.646Z,8.31
2023-01-07T19:00:56.883Z,8.32
2023-01-07T19:03:46.598Z,8.34
2023-01-07T19:06:27.847Z,8.34
2023-01-07T19:09:01.282Z,8.33
2023-01-07T19:11:37.711Z,8.34
2023-01-07T19:14:17.525Z,8.30
2023-01-07T19:16:55.884Z,8.25
2023-01-07T19:19:34.320Z,8.25
2023-01-07T19:22:15.925Z,8.28
2023-01-07T19:24:51.210Z,8.29
2023-01-07T19:27:22.427Z,8.29
2023-01-07T19:29:54.119Z,8.29
2023-01-07T19:32:26.464Z,8.30
2023-01-07T19:35:16.341Z,8.29
2023-01-07T19:38:02.211Z,8.28
2023-01-07T19:40:45.058Z,8.28
2023-01-07T19:43:22.507Z,8.28
2023-01-07T19:46:10.198Z,8.28
2023-01-07T19:48:53.222Z,8.28
2023-01-07T19:51:27.271Z,8.29
2023-01-07T19:54:19.156Z,8.29
2023-01-07T19:56:56.525Z,8.28
2023-01-07T19:59:34.923Z,8.26
2023-01-07T20:02:07.449Z,8.26
2023-01-07T20:04:40.282Z,8.25
2023-01-07T20:07:11.220Z,8.24
2023-01-07T20:09:42.355Z,8.23
2023-01-07T20:12:13.386Z,8.23
2023-01-07T20:14:45.269Z,8.22
2023-01-07T20:17:16.097Z,8.20
2023-01-07T20:19:46.827Z,8.17
2023-01-07T20:22:17.574Z,8.16
2023-01-07T20:24:48.268Z,8.13
2023-01-07T20:27:19.133Z,8.10
2023-01-07T20:29:49.927Z,8.08
2023-01-07T20:32:20.861Z,8.03
2023-01-07T20:34:51.612Z,7.99
2023-01-07T20:37:24.180Z,7.97
2023-01-07T20:39:54.882Z,7.93
2023-01-07T20:42:26.952Z,7.91
2023-01-07T20:44:57.722Z,7.90
2023-01-07T20:47:29.019Z,7.88
2023-01-07T20:50:01.513Z,7.81
2023-01-07T20:52:32.388Z,7.76
2023-01-07T20:55:05.823Z,7.74
2023-01-07T20:57:58.939Z,7.72
2023-01-07T21:00:29.782Z,7.69
2023-01-07T21:03:00.729Z,7.67
2023-01-07T21:05:32.413Z,7.65
2023-01-07T21:08:03.700Z,7.63
2023-01-07T21:10:34.494Z,7.60
2023-01-07T21:13:05.872Z,7.59
2023-01-07T21:15:38.645Z,7.57
2023-01-07T21:18:09.671Z,7.54
2023-01-07T21:20:43.165Z,7.53
2023-01-07T21:23:14.671Z,7.52
2023-01-07T21:25:49.347Z,7.53
2023-01-07T21:28:20.114Z,7.56
2023-01-07T21:30:50.967Z,7.58
2023-01-07T21:33:21.670Z,7.61
2023-01-07T21:35:52.355Z,7.62
2023-01-07T21:38:23.193Z,7.52
2023-01-07T21:40:54.135Z,7.42
2023-01-07T21:43:24.998Z,7.36
2023-01-07T21:45:56.509Z,7.33
2023-01-07T21:48:27.402Z,7.31
2023-01-07T21:50:58.546Z,7.28
2023-01-07T21:53:29.373Z,7.21
2023-01-07T21:56:00.097Z,7.12
2023-01-07T21:58:30.862Z,7.11
2023-01-07T22:01:01.568Z,7.09
2023-01-07T22:03:32.574Z,7.06
2023-01-07T22:06:03.825Z,7.00
2023-01-07T22:08:34.765Z,6.96
2023-01-07T22:11:05.632Z,6.92
2023-01-07T22:13:36.384Z,6.89
2023-01-07T22:16:07.453Z,6.86
2023-01-07T22:18:38.188Z,6.83
2023-01-07T22:21:09.025Z,6.79
2023-01-07T22:23:39.848Z,6.65
2023-01-07T22:26:11.188Z,6.55
2023-01-07T22:28:41.936Z,6.52
2023-01-07T22:31:15.073Z,6.48
2023-01-07T22:33:45.880Z,6.46
2023-01-07T22:36:17.226Z,6.46
2023-01-07T22:38:48.035Z,6.44
2023-01-07T22:41:18.892Z,6.44
2023-01-07T22:43:49.713Z,6.43
2023-01-07T22:46:21.157Z,6.42
2023-01-07T22:48:51.978Z,6.40
2023-01-07T22:51:25.143Z,6.38
2023-01-07T22:53:56.326Z,6.33
2023-01-07T22:56:27.019Z,6.26
2023-01-07T22:58:57.797Z,6.19
2023-01-07T23:01:29.513Z,6.17
2023-01-07T23:04:04.593Z,6.14
2023-01-07T23:06:36.908Z,6.09
2023-01-07T23:09:07.786Z,6.07
2023-01-07T23:11:51.941Z,6.06
2023-01-07T23:14:24.782Z,6.07
2023-01-07T23:16:55.835Z,6.06
2023-01-07T23:19:30.854Z,6.06
2023-01-07T23:22:03.841Z,6.01
2023-01-07T23:24:35.344Z,5.95
2023-01-07T23:27:06.925Z,5.95
2023-01-07T23:29:39.052Z,5.96
2023-01-07T23:32:12.701Z,6.01
2023-01-07T23:34:44.031Z,6.07
2023-01-07T23:37:16.444Z,6.14
2023-01-07T23:39:48.033Z,6.22
2023-01-07T23:42:20.576Z,6.31
2023-01-07T23:44:51.770Z,6.40
2023-01-07T23:47:22.882Z,6.48
2023-01-07T23:49:54.408Z,6.58
2023-01-07T23:52:25.834Z,6.68
2023-01-07T23:54:57.386Z,6.78
2023-01-07T23:57:28.734Z,6.86
